Time;durP1;ratioP1;P1;durP2;ratioP2;P2;SDS_P1;SDS_P2;PMS_P1;PMS_P2;Temp;Humidity;BMP_temperature;BMP_pressure;BME280_temperature;BME280_humidity;BME280_pressure;Samples;Min_cycle;Max_cycle;Signal;HPM_P1;HPM_P2
2023/01/04 00:00:48;;;;;;;1.48;1.20;;;;;;;8.86;92.39;101375.72;5026864;28;20190;-69
2023/01/04 00:03:14;;;;;;;5.55;1.13;;;;;;;8.55;94.09;101365.28;5033262;28;20053;-68
2023/01/04 00:05:40;;;;;;;2.25;1.42;;;;;;;8.67;93.77;101367.28;5033253;28;20397;-70
2023/01/04 00:08:05;;;;;;;4.45;1.30;;;;;;;8.57;93.44;101362.28;5033923;28;20041;-70
2023/01/04 00:10:31;;;;;;;1.30;0.90;;;;;;;8.62;94.50;101362.88;5029009;28;20108;-70
2023/01/04 00:12:56;;;;;;;1.73;1.27;;;;;;;8.59;94.14;101352.00;5032057;28;20040;-70
2023/01/04 00:15:22;;;;;;;3.65;1.40;;;;;;;8.48;94.52;101343.53;5030349;28;20907;-71
2023/01/04 00:17:50;;;;;;;2.42;1.10;;;;;;;8.59;94.16;101331.34;5031234;28;20679;-70
2023/01/04 00:20:16;;;;;;;3.95;1.00;;;;;;;8.70;94.07;101327.16;5028395;28;20029;-70
2023/01/04 00:22:41;;;;;;;2.10;1.15;;;;;;;8.47;94.61;101323.19;5030436;28;20025;-70
2023/01/04 00:25:07;;;;;;;1.10;1.00;;;;;;;8.44;94.15;101310.38;5024909;28;20037;-70
2023/01/04 00:27:33;;;;;;;1.80;1.20;;;;;;;8.48;94.26;101302.50;5030122;28;20037;-70
2023/01/04 00:29:58;;;;;;;1.92;1.17;;;;;;;8.43;94.07;101297.31;5028157;28;20029;-70
2023/01/04 00:32:24;;;;;;;3.70;1.15;;;;;;;8.49;93.59;101287.97;5030100;28;20037;-71
2023/01/04 00:34:49;;;;;;;3.22;1.17;;;;;;;8.76;93.14;101282.91;5028290;28;20031;-70
2023/01/04 00:37:14;;;;;;;2.97;1.48;;;;;;;8.83;92.85;101283.16;5031727;28;20044;-70
2023/01/04 00:39:40;;;;;;;2.35;2.15;;;;;;;8.91;91.99;101273.44;5015430;28;20592;-71
2023/01/04 00:42:05;;;;;;;1.15;0.93;;;;;;;8.84;92.35;101275.88;5032424;28;20033;-71
2023/01/04 00:44:33;;;;;;;1.25;1.00;;;;;;;8.89;92.28;101281.06;5032981;28;20036;-69
2023/01/04 00:46:59;;;;;;;4.03;1.00;;;;;;;8.77;91.69;101284.44;5030815;28;20034;-71
2023/01/04 00:49:26;;;;;;;5.20;1.17;;;;;;;8.89;92.47;101286.41;5035706;28;20033;-70
2023/01/04 00:51:51;;;;;;;5.55;1.33;;;;;;;8.95;91.84;101282.44;5030996;28;20562;-70
2023/01/04 00:54:17;;;;;;;1.20;1.10;;;;;;;8.98;91.11;101266.44;5030838;28;20116;-70
2023/01/04 00:56:43;;;;;;;1.75;1.02;;;;;;;9.01;91.07;101271.16;5032439;28;20035;-71
2023/01/04 00:59:10;;;;;;;1.35;1.17;;;;;;;9.04;90.85;101249.00;5029968;28;20036;-71
2023/01/04 01:01:36;;;;;;;0.77;0.77;;;;;;;8.83;91.37;101242.88;5032269;28;20433;-70
2023/01/04 01:04:03;;;;;;;1.05;0.95;;;;;;;8.94;91.07;101240.59;5033055;28;20021;-71
2023/01/04 01:06:30;;;;;;;0.85;0.82;;;;;;;8.82;90.94;101233.25;5035308;28;20037;-70
2023/01/04 01:08:56;;;;;;;0.88;0.88;;;;;;;8.84;90.99;101225.66;5032850;28;20036;-68
2023/01/04 01:11:23;;;;;;;1.15;0.85;;;;;;;8.82;91.08;101213.66;5031295;28;20029;-71
2023/01/04 01:13:50;;;;;;;1.63;1.20;;;;;;;8.78;91.15;101212.75;5025999;28;20037;-70
2023/01/04 01:16:18;;;;;;;2.17;1.05;;;;;;;8.84;91.62;101204.19;5028676;28;20112;-70
2023/01/04 01:18:44;;;;;;;1.30;1.20;;;;;;;8.86;91.29;101198.47;5025144;28;20033;-70
2023/01/04 01:21:13;;;;;;;1.55;1.20;;;;;;;8.88;90.93;101198.94;5028289;28;20052;-70
2023/01/04 01:23:39;;;;;;;1.58;0.70;;;;;;;8.89;90.68;101190.53;5026697;28;20068;-70
2023/01/04 01:26:07;;;;;;;1.67;1.15;;;;;;;9.04;89.89;101197.19;5027764;28;20522;-70
2023/01/04 01:28:34;;;;;;;2.15;0.82;;;;;;;9.03;90.76;101195.63;5033635;28;20036;-70
2023/01/04 01:31:08;;;;;;;1.20;0.85;;;;;;;9.07;90.22;101180.41;5029794;28;20041;-70
2023/01/04 01:33:38;;;;;;;0.93;0.75;;;;;;;9.14;89.62;101171.81;5032858;28;20311;-70
2023/01/04 01:36:05;;;;;;;0.90;0.85;;;;;;;9.20;88.61;101168.56;5032518;28;20561;-71
2023/01/04 01:38:31;;;;;;;5.75;0.95;;;;;;;9.24;89.03;101158.72;5032872;28;20035;-70
2023/01/04 01:41:17;;;;;;;1.92;1.00;;;;;;;9.09;88.83;101164.75;5036598;28;20144;-71
2023/01/04 01:43:50;;;;;;;6.50;0.88;;;;;;;9.14;89.49;101169.91;4964128;28;20049;-70
2023/01/04 01:46:21;;;;;;;2.05;1.10;;;;;;;9.22;89.02;101158.28;4981172;28;20240;-70
2023/01/04 01:48:47;;;;;;;1.00;0.80;;;;;;;9.29;88.60;101149.69;4981767;28;20500;-70
2023/01/04 01:51:15;;;;;;;2.05;1.00;;;;;;;9.20;88.28;101144.41;4980008;28;20048;-71
2023/01/04 01:53:44;;;;;;;0.85;0.70;;;;;;;9.26;88.72;101153.81;4983385;28;20046;-70
2023/01/04 01:56:10;;;;;;;2.58;0.77;;;;;;;9.31;87.95;101139.38;4964603;28;20045;-69
2023/01/04 01:58:40;;;;;;;2.10;0.93;;;;;;;9.28;87.84;101129.28;4981655;28;20034;-71
2023/01/04 02:01:07;;;;;;;2.70;1.30;;;;;;;9.40;87.99;101113.19;4954746;28;20061;-70
2023/01/04 02:03:38;;;;;;;1.98;1.00;;;;;;;9.23;88.15;101121.47;4954217;28;20167;-70
2023/01/04 02:06:07;;;;;;;0.95;0.80;;;;;;;9.20;88.54;101103.28;4977743;28;20038;-72
2023/01/04 02:08:35;;;;;;;3.70;1.23;;;;;;;9.27;88.19;101114.31;4970989;28;20049;-69
2023/01/04 02:11:00;;;;;;;0.80;0.68;;;;;;;9.38;87.90;101100.09;4975855;28;20038;-72
2023/01/04 02:16:56;;;;;;;0.50;0.50;;;;;;;9.16;88.26;101078.22;4964527;28;20031;-69
2023/01/04 02:19:58;;;;;;;2.13;1.20;;;;;;;9.31;88.18;101069.53;4970448;28;20027;-69
2023/01/04 02:23:01;;;;;;;5.55;1.08;;;;;;;9.22;88.30;101064.25;5034335;28;20076;-69
2023/01/04 02:25:57;;;;;;;3.33;0.88;;;;;;;9.22;88.35;101060.75;5024192;28;20045;-69
2023/01/04 02:28:48;;;;;;;2.47;0.98;;;;;;;9.17;88.10;101042.19;5033561;28;20034;-70
2023/01/04 02:31:18;;;;;;;1.35;1.10;;;;;;;9.14;87.83;101042.88;5038495;28;20107;-71
2023/01/04 02:34:03;;;;;;;0.82;0.80;;;;;;;9.13;87.72;101041.28;5033176;28;20060;-71
2023/01/04 02:36:44;;;;;;;2.10;0.93;;;;;;;9.23;87.90;101028.19;5034271;28;20033;-70
2023/01/04 02:39:38;;;;;;;1.65;0.80;;;;;;;9.34;87.11;101025.84;5052857;28;20493;-73
2023/01/04 02:42:14;;;;;;;0.95;0.70;;;;;;;9.14;87.28;101010.63;5038018;28;20028;-71
2023/01/04 02:44:54;;;;;;;4.68;1.00;;;;;;;9.22;87.65;101009.72;5040481;28;20428;-71
2023/01/04 02:50:32;;;;;;;1.27;0.70;;;;;;;9.27;87.76;100996.81;5031909;28;20299;-70
2023/01/04 02:53:01;;;;;;;1.05;0.95;;;;;;;9.26;87.25;100979.16;5032340;28;20025;-70
2023/01/04 02:55:37;;;;;;;1.75;0.98;;;;;;;9.20;87.73;100975.13;5025935;28;20403;-72
2023/01/04 02:58:17;;;;;;;0.50;0.50;;;;;;;9.29;86.87;100956.97;5034668;28;20071;-71
2023/01/04 03:07:05;;;;;;;6.07;1.20;;;;;;;9.40;86.69;100930.41;5032920;28;20033;-70
2023/01/04 03:09:34;;;;;;;0.95;0.77;;;;;;;9.43;85.53;100919.75;5046222;28;20026;-71
2023/01/04 03:15:00;;;;;;;1.17;0.90;;;;;;;9.38;85.18;100900.41;5028844;28;20108;-70
2023/01/04 03:17:30;;;;;;;5.55;0.93;;;;;;;9.37;85.03;100888.09;5029632;28;20038;-72
2023/01/04 03:19:58;;;;;;;1.65;0.80;;;;;;;9.49;85.73;100874.59;5036417;28;20422;-70
2023/01/04 03:36:36;;;;;;;0.65;0.65;;;;;;;9.41;84.91;100829.84;5029514;28;20033;-70
2023/01/04 03:48:29;;;;;;;1.35;0.77;;;;;;;9.60;84.06;100795.06;5024642;28;20044;-70
2023/01/04 03:51:14;;;;;;;0.73;0.70;;;;;;;9.43;84.90;100784.59;5033610;28;20386;-70
2023/01/04 03:54:06;;;;;;;0.80;0.55;;;;;;;9.62;84.51;100779.38;5021897;28;20045;-71
2023/01/04 03:56:36;;;;;;;3.50;0.63;;;;;;;9.62;85.60;100774.75;5010197;28;20052;-71
2023/01/04 03:59:03;;;;;;;5.57;0.90;;;;;;;9.87;85.02;100767.34;5021120;28;20068;-71
2023/01/04 04:01:29;;;;;;;0.70;0.70;;;;;;;9.67;85.95;100765.66;5025986;28;20029;-70
2023/01/04 04:09:23;;;;;;;2.13;0.90;;;;;;;9.70;86.53;100736.16;5023953;28;20128;-70
2023/01/04 04:11:49;;;;;;;2.65;0.88;;;;;;;9.60;87.31;100746.66;5026400;28;20108;-70
2023/01/04 04:14:18;;;;;;;5.18;1.10;;;;;;;9.29;89.25;100725.88;5026959;28;20489;-70
2023/01/04 04:16:43;;;;;;;1.02;0.60;;;;;;;9.34;89.37;100714.09;5028077;28;20120;-70
2023/01/04 04:19:08;;;;;;;0.80;0.80;;;;;;;9.42;89.19;100705.88;5031992;28;20116;-70
2023/01/04 04:21:34;;;;;;;0.90;0.80;;;;;;;9.48;90.17;100711.78;5031671;28;20037;-71
2023/01/04 04:23:59;;;;;;;1.95;0.73;;;;;;;9.31;90.29;100701.38;5026131;28;20036;-71
2023/01/04 04:26:25;;;;;;;2.72;0.95;;;;;;;9.41;91.02;100709.69;5030097;28;20030;-71
2023/01/04 04:28:50;;;;;;;2.20;0.70;;;;;;;9.31;92.15;100696.00;5031182;28;20075;-72
2023/01/04 04:31:16;;;;;;;1.70;0.77;;;;;;;9.22;91.94;100677.34;5028904;28;20048;-71
2023/01/04 04:33:42;;;;;;;2.67;1.40;;;;;;;9.27;93.13;100685.13;5030890;28;20028;-71
2023/01/04 04:36:07;;;;;;;0.80;0.70;;;;;;;9.19;93.87;100682.63;5029308;28;20060;-71
2023/01/04 04:38:34;;;;;;;1.02;0.80;;;;;;;9.05;94.99;100673.06;5029336;28;20039;-72
2023/01/04 04:43:50;;;;;;;1.38;0.95;;;;;;;9.05;95.49;100669.59;5045542;28;20044;-72
2023/01/04 04:46:15;;;;;;;1.65;1.10;;;;;;;9.01;96.22;100658.75;5034862;28;20029;-72
2023/01/04 04:48:41;;;;;;;3.92;0.90;;;;;;;9.03;96.47;100653.84;5030462;28;20441;-71
2023/01/04 04:51:06;;;;;;;1.48;0.82;;;;;;;9.09;96.61;100641.72;5040112;28;20034;-72
2023/01/04 04:53:31;;;;;;;1.00;0.75;;;;;;;9.16;96.83;100651.84;5031949;28;20394;-71
2023/01/04 04:55:57;;;;;;;1.15;1.02;;;;;;;9.17;96.21;100633.81;5019196;28;20065;-71
2023/01/04 04:58:23;;;;;;;3.28;1.05;;;;;;;8.98;97.52;100640.63;5022023;28;20061;-72
2023/01/04 05:00:48;;;;;;;2.78;0.80;;;;;;;8.89;98.12;100617.75;5032871;28;20580;-72
2023/01/04 05:03:13;;;;;;;1.50;0.80;;;;;;;8.89;98.88;100617.75;5031228;28;20029;-73
2023/01/04 05:05:41;;;;;;;1.13;0.75;;;;;;;9.03;98.98;100608.16;5025994;28;20060;-72
2023/01/04 05:08:07;;;;;;;1.17;0.80;;;;;;;8.86;99.61;100597.75;5031064;28;20494;-72
2023/01/04 05:10:32;;;;;;;1.00;0.82;;;;;;;8.77;100.00;100591.75;5030333;28;20092;-72
2023/01/04 05:13:00;;;;;;;0.50;0.50;;;;;;;8.78;100.00;100577.22;5028172;28;20117;-75
2023/01/04 05:15:32;;;;;;;2.67;1.40;;;;;;;8.71;100.00;100574.31;5032788;28;20033;-73
2023/01/04 05:17:58;;;;;;;0.75;0.75;;;;;;;8.65;100.00;100569.56;5033617;28;20029;-72
2023/01/04 05:20:23;;;;;;;1.17;0.80;;;;;;;8.64;100.00;100576.03;5027778;28;20128;-72
2023/01/04 05:22:49;;;;;;;1.02;0.90;;;;;;;8.67;100.00;100556.59;5028162;28;20025;-73
2023/01/04 05:25:15;;;;;;;3.35;0.88;;;;;;;8.77;100.00;100564.09;5030820;28;20549;-73
2023/01/04 05:27:40;;;;;;;1.42;1.02;;;;;;;8.89;100.00;100562.16;5039182;28;20061;-72
2023/01/04 05:32:50;;;;;;;1.52;1.00;;;;;;;8.84;100.00;100549.00;5029193;28;20033;-70
2023/01/04 05:35:16;;;;;;;1.10;0.90;;;;;;;8.93;100.00;100543.44;5032779;28;20056;-70
2023/01/04 05:37:42;;;;;;;1.30;1.20;;;;;;;8.85;100.00;100521.00;5029255;28;20047;-73
2023/01/04 05:40:08;;;;;;;0.50;0.50;;;;;;;8.89;100.00;100531.81;5030452;28;20033;-73
2023/01/04 05:42:33;;;;;;;0.75;0.68;;;;;;;8.92;100.00;100523.84;5039932;28;20036;-73
2023/01/04 05:44:59;;;;;;;6.70;1.00;;;;;;;8.91;100.00;100506.19;5029145;28;20033;-71
2023/01/04 05:47:28;;;;;;;0.95;0.60;;;;;;;8.86;100.00;100511.03;5030954;28;20038;-72
2023/01/04 05:49:53;;;;;;;0.70;0.70;;;;;;;8.94;100.00;100499.34;5029461;28;20041;-74
2023/01/04 05:52:19;;;;;;;0.93;0.90;;;;;;;8.96;100.00;100491.72;5030708;28;20021;-72
2023/01/04 05:54:45;;;;;;;0.82;0.82;;;;;;;9.06;100.00;100481.22;5029203;28;20038;-71
2023/01/04 05:57:11;;;;;;;1.77;0.90;;;;;;;9.09;100.00;100483.22;5031159;28;20033;-71
2023/01/04 05:59:37;;;;;;;0.95;0.80;;;;;;;9.22;100.00;100483.09;5028964;28;20034;-71
2023/01/04 06:02:02;;;;;;;1.17;0.63;;;;;;;9.27;100.00;100480.94;5025187;28;20072;-72
2023/01/04 06:04:28;;;;;;;1.13;0.88;;;;;;;9.26;100.00;100483.97;5029525;28;20041;-71
2023/01/04 06:06:53;;;;;;;1.35;1.00;;;;;;;9.19;100.00;100462.31;5039819;28;20025;-72
2023/01/04 06:09:19;;;;;;;1.77;1.20;;;;;;;9.26;100.00;100474.00;5026384;28;20029;-72
2023/01/04 06:11:44;;;;;;;0.80;0.80;;;;;;;9.28;100.00;100455.63;5028253;28;20033;-72
2023/01/04 06:14:10;;;;;;;1.73;0.57;;;;;;;9.29;100.00;100446.44;5029968;28;20104;-72
2023/01/04 06:16:37;;;;;;;1.23;0.77;;;;;;;9.32;100.00;100450.31;5045395;28;20041;-71
2023/01/04 06:19:03;;;;;;;0.70;0.70;;;;;;;9.33;100.00;100441.91;5033150;28;20029;-72
2023/01/04 06:21:28;;;;;;;1.20;0.75;;;;;;;9.27;100.00;100451.38;5017403;28;20030;-71
2023/01/04 06:23:54;;;;;;;1.02;0.73;;;;;;;9.30;100.00;100444.53;5030151;28;20029;-72
2023/01/04 06:26:20;;;;;;;1.15;0.65;;;;;;;9.36;100.00;100440.44;5032812;28;20029;-72
2023/01/04 06:28:46;;;;;;;1.63;1.10;;;;;;;9.47;100.00;100444.91;5030138;28;20029;-72
2023/01/04 06:31:11;;;;;;;1.85;0.70;;;;;;;9.51;100.00;100432.31;5031533;28;20041;-72
2023/01/04 06:33:37;;;;;;;1.52;0.60;;;;;;;9.54;100.00;100420.09;5032070;28;20037;-72
2023/01/04 06:36:03;;;;;;;0.57;0.57;;;;;;;9.59;100.00;100425.97;5025494;28;20041;-75
2023/01/04 06:38:30;;;;;;;0.98;0.43;;;;;;;9.71;100.00;100415.06;5028966;28;20089;-72
2023/01/04 06:40:55;;;;;;;2.13;0.77;;;;;;;9.75;100.00;100412.44;5021363;28;20037;-74
2023/01/04 06:43:21;;;;;;;0.50;0.50;;;;;;;9.80;100.00;100406.78;5028481;28;20057;-74
2023/01/04 06:45:46;;;;;;;0.93;0.75;;;;;;;9.64;100.00;100403.41;5024462;28;20049;-75
2023/01/04 06:48:12;;;;;;;0.50;0.50;;;;;;;9.83;100.00;100403.41;5035901;28;20112;-75
2023/01/04 06:50:37;;;;;;;0.93;0.90;;;;;;;9.95;100.00;100397.84;5030291;28;20044;-74
2023/01/04 06:53:03;;;;;;;0.70;0.63;;;;;;;10.03;100.00;100388.78;5031317;28;20036;-74
2023/01/04 06:55:28;;;;;;;0.68;0.45;;;;;;;9.97;100.00;100379.44;5031009;28;20025;-74
2023/01/04 06:57:55;;;;;;;1.75;0.60;;;;;;;10.03;100.00;100383.38;5032412;28;20061;-73
2023/01/04 07:00:20;;;;;;;0.47;0.43;;;;;;;10.00;100.00;100373.34;5031722;28;20803;-74
2023/01/04 07:02:46;;;;;;;0.50;0.50;;;;;;;10.04;100.00;100374.19;5012959;28;20209;-74
2023/01/04 07:05:11;;;;;;;0.50;0.50;;;;;;;10.01;100.00;100373.00;5029984;28;20296;-73
2023/01/04 07:07:37;;;;;;;0.70;0.60;;;;;;;10.04;100.00;100355.38;5029611;28;20068;-74
2023/01/04 07:10:03;;;;;;;1.50;0.57;;;;;;;10.20;100.00;100344.53;5031325;28;20464;-75
2023/01/04 07:12:28;;;;;;;0.73;0.70;;;;;;;10.19;100.00;100353.72;5032255;28;20045;-73
2023/01/04 07:14:54;;;;;;;0.50;0.50;;;;;;;9.88;100.00;100352.78;5024319;28;20013;-74
2023/01/04 07:17:20;;;;;;;2.13;0.63;;;;;;;9.92;100.00;100337.50;5032834;28;20040;-73
2023/01/04 07:19:48;;;;;;;0.35;0.35;;;;;;;10.10;100.00;100340.50;5035869;28;20032;-73
2023/01/04 07:22:14;;;;;;;0.63;0.50;;;;;;;10.02;100.00;100338.81;5035085;28;20116;-73
2023/01/04 07:24:39;;;;;;;0.70;0.70;;;;;;;10.17;100.00;100321.00;5026345;28;20108;-73
2023/01/04 07:27:05;;;;;;;0.40;0.40;;;;;;;10.18;100.00;100317.94;5018705;28;20030;-72
2023/01/04 07:29:30;;;;;;;0.98;0.50;;;;;;;10.09;100.00;100306.63;5031121;28;20383;-72
2023/01/04 07:31:56;;;;;;;2.40;0.70;;;;;;;10.13;100.00;100306.72;5023869;28;20120;-73
2023/01/04 07:34:24;;;;;;;1.17;0.63;;;;;;;10.18;100.00;100307.19;5040006;28;20436;-73
2023/01/04 07:36:50;;;;;;;1.33;0.70;;;;;;;10.22;100.00;100299.94;5038999;28;20048;-72
2023/01/04 07:39:17;;;;;;;1.02;0.65;;;;;;;10.23;100.00;100295.34;5033101;28;20160;-72
2023/01/04 07:41:43;;;;;;;0.60;0.60;;;;;;;10.24;100.00;100300.38;5038528;28;20509;-72
2023/01/04 07:44:10;;;;;;;0.47;0.47;;;;;;;10.35;100.00;100304.03;5044917;28;20040;-73
2023/01/04 07:46:37;;;;;;;0.40;0.40;;;;;;;10.21;100.00;100303.78;5032689;28;20029;-72
2023/01/04 07:49:03;;;;;;;0.50;0.50;;;;;;;10.40;100.00;100292.16;5031890;28;20056;-72
2023/01/04 07:51:30;;;;;;;0.55;0.55;;;;;;;10.42;100.00;100285.28;5030695;28;20037;-72
2023/01/04 07:53:55;;;;;;;0.90;0.75;;;;;;;10.49;100.00;100285.38;5034177;28;20050;-72
2023/01/04 07:56:20;;;;;;;1.55;0.77;;;;;;;10.44;100.00;100274.91;5034115;28;20025;-72
2023/01/04 07:58:46;;;;;;;0.70;0.70;;;;;;;10.46;100.00;100272.66;5030226;28;20522;-72
2023/01/04 08:01:14;;;;;;;1.00;0.77;;;;;;;10.62;100.00;100264.41;5029719;28;20025;-72
2023/01/04 08:03:40;;;;;;;2.95;0.70;;;;;;;10.56;100.00;100276.63;5034634;28;20040;-72
2023/01/04 08:06:08;;;;;;;1.05;0.80;;;;;;;10.66;100.00;100282.16;5027713;28;20037;-72
2023/01/04 08:08:34;;;;;;;0.80;0.60;;;;;;;10.80;100.00;100271.56;5035089;28;20029;-73
2023/01/04 08:11:12;;;;;;;1.80;1.20;;;;;;;10.77;100.00;100277.69;5017690;28;20104;-73
2023/01/04 08:13:37;;;;;;;1.20;0.93;;;;;;;10.77;100.00;100277.69;5044261;28;20037;-73
2023/01/04 08:16:03;;;;;;;2.05;1.60;;;;;;;10.88;100.00;100286.69;5024389;28;20056;-72
2023/01/04 08:18:29;;;;;;;2.35;1.20;;;;;;;10.87;100.00;100281.66;5030086;28;20095;-73
2023/01/04 08:21:09;;;;;;;1.67;0.80;;;;;;;10.78;100.00;100268.47;5027038;28;20033;-74
2023/01/04 08:23:35;;;;;;;1.52;1.02;;;;;;;10.93;100.00;100276.72;5032201;28;20041;-74
2023/01/04 08:26:07;;;;;;;0.80;0.73;;;;;;;10.98;100.00;100263.72;5044986;28;20025;-74
2023/01/04 08:28:33;;;;;;;2.63;1.20;;;;;;;11.06;100.00;100267.25;5028472;28;20079;-74
2023/01/04 08:31:05;;;;;;;1.20;1.10;;;;;;;11.06;100.00;100254.56;5028971;28;20041;-74
2023/01/04 08:33:30;;;;;;;1.05;0.98;;;;;;;11.13;100.00;100257.34;5012386;28;20025;-72
2023/01/04 08:36:20;;;;;;;3.65;1.17;;;;;;;11.15;100.00;100251.59;5030153;28;20027;-73
2023/01/04 08:38:51;;;;;;;1.50;1.00;;;;;;;11.12;100.00;100246.94;5026569;28;20064;-73
2023/01/04 08:41:18;;;;;;;0.98;0.80;;;;;;;11.15;100.00;100248.91;5027766;28;20033;-73
2023/01/04 08:43:44;;;;;;;1.27;1.05;;;;;;;11.12;100.00;100249.63;5029407;28;20113;-73
2023/01/04 08:46:11;;;;;;;2.60;1.13;;;;;;;11.15;100.00;100243.53;5030290;28;20509;-74
2023/01/04 08:48:36;;;;;;;2.58;1.13;;;;;;;11.16;100.00;100251.22;5029681;28;20029;-73
2023/01/04 08:51:05;;;;;;;3.95;1.30;;;;;;;11.27;100.00;100252.13;5034032;28;20037;-73
2023/01/04 08:53:30;;;;;;;1.75;0.93;;;;;;;11.27;100.00;100251.34;5045636;28;20117;-73
2023/01/04 08:55:59;;;;;;;1.05;0.90;;;;;;;11.35;100.00;100252.97;5037242;28;20041;-73
2023/01/04 08:58:28;;;;;;;1.35;1.10;;;;;;;11.43;100.00;100258.06;5029850;28;20067;-73
2023/01/04 09:01:02;;;;;;;1.50;1.02;;;;;;;11.43;100.00;100254.59;5033639;28;20490;-73
2023/01/04 09:03:28;;;;;;;1.05;0.95;;;;;;;11.43;100.00;100258.06;5034039;28;20040;-73
2023/01/04 09:06:04;;;;;;;1.05;0.90;;;;;;;11.39;100.00;100253.78;5031579;28;20034;-73
2023/01/04 09:08:31;;;;;;;1.27;1.00;;;;;;;11.39;100.00;100246.47;5023556;28;20034;-74
2023/01/04 09:10:57;;;;;;;1.40;1.00;;;;;;;11.47;100.00;100250.78;5027753;28;20513;-73
2023/01/04 09:13:23;;;;;;;4.00;0.77;;;;;;;11.51;100.00;100245.44;5038722;28;20034;-74
2023/01/04 09:15:48;;;;;;;1.35;1.20;;;;;;;11.50;100.00;100249.25;5032917;28;20044;-74
2023/01/04 09:18:13;;;;;;;1.33;1.13;;;;;;;11.58;100.00;100223.91;5018512;28;20044;-74
2023/01/04 09:20:39;;;;;;;1.10;0.88;;;;;;;11.58;100.00;100226.63;5030943;28;20026;-74
2023/01/04 09:23:05;;;;;;;2.30;1.10;;;;;;;11.57;100.00;100235.88;5024130;28;20565;-74
2023/01/04 09:25:30;;;;;;;1.83;1.00;;;;;;;11.63;100.00;100226.28;5038495;28;20175;-73
2023/01/04 09:27:56;;;;;;;2.05;1.10;;;;;;;11.69;100.00;100208.66;5038000;28;20036;-74
2023/01/04 09:30:22;;;;;;;1.42;1.20;;;;;;;11.72;100.00;100210.59;5010487;28;20037;-75
2023/01/04 09:32:47;;;;;;;0.90;0.77;;;;;;;11.81;100.00;100202.94;5036524;28;20176;-75
2023/01/04 09:35:13;;;;;;;0.93;0.82;;;;;;;11.79;100.00;100205.25;5031927;28;20052;-74
2023/01/04 09:37:38;;;;;;;0.77;0.77;;;;;;;11.74;100.00;100202.91;5036120;28;20415;-74
2023/01/04 09:40:05;;;;;;;1.05;0.93;;;;;;;11.84;100.00;100210.31;5032241;28;20506;-75
2023/01/04 09:42:39;;;;;;;3.42;1.15;;;;;;;11.87;100.00;100206.84;5028650;28;20021;-73
2023/01/04 09:45:18;;;;;;;1.38;0.98;;;;;;;11.86;100.00;100207.22;5019290;28;20025;-72
2023/01/04 09:48:02;;;;;;;1.10;0.70;;;;;;;11.81;100.00;100210.28;5034931;28;20052;-73
2023/01/04 09:50:33;;;;;;;1.00;0.88;;;;;;;11.84;100.00;100196.03;5040027;28;20128;-73
2023/01/04 09:53:07;;;;;;;1.02;0.80;;;;;;;11.89;100.00;100207.25;5015173;28;20115;-74
2023/01/04 09:55:46;;;;;;;1.15;1.00;;;;;;;11.98;100.00;100205.00;5042288;28;20042;-74
2023/01/04 09:58:21;;;;;;;1.15;0.80;;;;;;;11.98;100.00;100196.91;5015091;28;20526;-74
2023/01/04 10:01:03;;;;;;;0.88;0.75;;;;;;;12.05;100.00;100188.09;5022805;28;20536;-73
2023/01/04 10:03:40;;;;;;;4.13;1.17;;;;;;;11.94;100.00;100182.63;5025997;28;20030;-74
2023/01/04 10:06:11;;;;;;;1.52;0.90;;;;;;;11.94;100.00;100187.25;5012740;28;20029;-73
2023/01/04 10:08:37;;;;;;;2.05;1.15;;;;;;;11.89;100.00;100174.88;5017144;28;20041;-73
2023/01/04 10:11:59;;;;;;;2.10;1.02;;;;;;;11.97;100.00;100170.31;5019634;28;20037;-73
2023/01/04 10:14:49;;;;;;;1.17;0.98;;;;;;;11.98;100.00;100183.41;4950906;28;20055;-73
2023/01/04 10:17:19;;;;;;;1.77;1.40;;;;;;;12.11;100.00;100171.19;4954372;28;20057;-74
2023/01/04 10:19:54;;;;;;;2.25;1.33;;;;;;;12.16;100.00;100170.81;4925134;28;20043;-73
2023/01/04 10:22:19;;;;;;;2.13;1.15;;;;;;;12.19;100.00;100172.78;4944652;28;20191;-73
2023/01/04 10:24:59;;;;;;;1.10;1.00;;;;;;;12.18;100.00;100168.50;4945420;29;20035;-73
2023/01/04 10:27:51;;;;;;;2.05;1.20;;;;;;;12.13;100.00;100163.47;4929838;29;20447;-73
2023/01/04 10:30:26;;;;;;;1.33;1.00;;;;;;;12.13;100.00;100155.38;4933539;29;20114;-74
2023/01/04 10:33:12;;;;;;;2.28;1.20;;;;;;;12.18;100.00;100160.41;4953593;28;20048;-74
2023/01/04 10:35:39;;;;;;;1.90;1.08;;;;;;;12.24;100.00;100150.03;4904729;28;20040;-74
2023/01/04 10:38:14;;;;;;;6.85;1.20;;;;;;;12.12;100.00;100150.34;4946177;28;20135;-70
2023/01/04 10:40:40;;;;;;;2.67;1.23;;;;;;;12.17;100.00;100148.09;4949764;29;20043;-72
2023/01/04 10:43:26;;;;;;;1.42;1.20;;;;;;;12.11;100.00;100128.00;4947328;29;20537;-72
2023/01/04 10:46:05;;;;;;;2.08;0.93;;;;;;;12.23;100.00;100135.00;4989050;28;20045;-74
2023/01/04 10:48:45;;;;;;;1.30;0.95;;;;;;;12.33;100.00;100124.22;5033192;28;20061;-74
2023/01/04 10:51:16;;;;;;;1.38;1.00;;;;;;;12.33;100.00;100132.34;5029216;28;20030;-75
2023/01/04 10:53:47;;;;;;;1.20;0.80;;;;;;;12.42;100.00;100126.59;5013415;28;20026;-74
2023/01/04 10:56:13;;;;;;;1.25;1.10;;;;;;;12.33;100.00;100115.38;5020092;28;20034;-74
2023/01/04 10:58:47;;;;;;;1.23;0.98;;;;;;;12.29;100.00;100128.09;5014067;28;20090;-74
2023/01/04 11:01:42;;;;;;;0.70;0.70;;;;;;;12.30;100.00;100116.13;5028938;28;20521;-74
2023/01/04 11:04:14;;;;;;;0.95;0.80;;;;;;;12.31;100.00;100104.19;5031904;28;20099;-74
2023/01/04 11:06:43;;;;;;;0.98;0.90;;;;;;;12.39;100.00;100103.03;5031901;28;20037;-75
2023/01/04 11:09:16;;;;;;;1.30;0.90;;;;;;;12.34;100.00;100095.31;5030144;28;20048;-75
2023/01/04 11:11:45;;;;;;;1.08;0.98;;;;;;;12.37;100.00;100091.84;5031054;28;20038;-74
2023/01/04 11:14:11;;;;;;;1.08;0.90;;;;;;;12.42;100.00;100100.38;5032833;28;20175;-74
2023/01/04 11:16:39;;;;;;;1.10;0.88;;;;;;;12.25;100.00;100087.53;5031797;28;20115;-74
2023/01/04 11:19:07;;;;;;;1.17;1.00;;;;;;;12.38;100.00;100088.78;5028965;28;20025;-74
2023/01/04 11:22:00;;;;;;;1.05;0.93;;;;;;;12.45;100.00;100094.19;5030901;28;20045;-74
2023/01/04 11:24:30;;;;;;;1.00;0.90;;;;;;;12.45;100.00;100082.63;5018722;28;20045;-75
2023/01/04 11:26:58;;;;;;;0.82;0.73;;;;;;;12.44;100.00;100098.06;5030390;28;20033;-75
2023/01/04 11:29:53;;;;;;;0.77;0.75;;;;;;;12.48;100.00;100088.06;5032568;28;20030;-75
2023/01/04 11:32:40;;;;;;;1.45;0.90;;;;;;;12.52;100.00;100077.25;5031823;28;20041;-75
2023/01/04 11:35:06;;;;;;;2.05;0.85;;;;;;;12.58;100.00;100076.47;5031125;28;20033;-75
2023/01/04 11:37:36;;;;;;;0.80;0.70;;;;;;;12.58;100.00;100081.13;5031002;28;20544;-74
2023/01/04 11:40:17;;;;;;;0.90;0.90;;;;;;;12.72;100.00;100081.16;5037072;28;20041;-73
2023/01/04 11:42:48;;;;;;;1.10;0.70;;;;;;;12.58;100.00;100076.47;5029248;28;20038;-74
2023/01/04 11:45:24;;;;;;;0.85;0.70;;;;;;;12.68;100.00;100083.06;5032426;28;20395;-74
2023/01/04 11:47:56;;;;;;;0.70;0.70;;;;;;;12.68;100.00;100061.44;5030128;28;20045;-74
2023/01/04 11:50:45;;;;;;;1.30;0.55;;;;;;;12.63;100.00;100073.44;5039055;28;20124;-74
2023/01/04 11:53:27;;;;;;;0.77;0.75;;;;;;;12.71;100.00;100049.91;5030297;28;20108;-73
2023/01/04 11:56:14;;;;;;;4.40;1.08;;;;;;;12.74;100.00;100062.63;5023638;28;20041;-75
2023/01/04 11:58:41;;;;;;;0.65;0.55;;;;;;;12.73;100.00;100063.00;5026399;28;20056;-74
2023/01/04 12:01:21;;;;;;;0.80;0.60;;;;;;;12.79;100.00;100047.97;5014636;28;20467;-74
2023/01/04 12:03:46;;;;;;;0.80;0.60;;;;;;;12.82;100.00;100053.38;5029075;28;20042;-74
2023/01/04 12:06:23;;;;;;;0.80;0.80;;;;;;;12.76;100.00;100059.53;5012114;28;20499;-73
2023/01/04 12:08:49;;;;;;;0.93;0.82;;;;;;;12.70;100.00;100059.91;5020280;28;20084;-74
2023/01/04 12:11:24;;;;;;;1.35;0.70;;;;;;;12.74;100.00;100037.56;5026153;28;20025;-74
2023/01/04 12:13:50;;;;;;;0.82;0.50;;;;;;;12.74;100.00;100042.97;5028953;28;20068;-74
2023/01/04 12:16:27;;;;;;;0.63;0.50;;;;;;;12.83;100.00;100046.84;5027070;28;20065;-75
2023/01/04 12:18:53;;;;;;;0.75;0.75;;;;;;;12.82;100.00;100052.59;5022518;28;20037;-73
2023/01/04 12:21:24;;;;;;;3.13;0.90;;;;;;;12.92;100.00;100038.31;5029228;28;20029;-72
2023/01/04 12:23:51;;;;;;;0.60;0.60;;;;;;;12.94;100.00;100036.78;5025300;28;20474;-73
2023/01/04 12:26:18;;;;;;;0.93;0.63;;;;;;;12.87;100.00;100030.63;5025753;28;20096;-73